Time;durP1;ratioP1;P1;durP2;ratioP2;P2;SDS_P1;SDS_P2;PMS_P1;PMS_P2;Temp;Humidity;BMP_temperature;BMP_pressure;BME280_temperature;BME280_humidity;BME280_pressure;Samples;Min_cycle;Max_cycle;Signal;HPM_P1;HPM_P2
2022/09/17 00:00:23;;;;;;;3.20;3.10;;;14.60;99.90;;;;;;4992990;28;20958;-85
2022/09/17 00:02:54;;;;;;;3.73;3.43;;;14.50;99.90;;;;;;4992897;28;20177;-86
2022/09/17 00:05:22;;;;;;;3.50;3.37;;;14.60;99.90;;;;;;4993012;28;20174;-88
2022/09/17 00:07:49;;;;;;;3.17;3.00;;;14.50;99.90;;;;;;4991303;28;20192;-86
2022/09/17 00:10:15;;;;;;;3.57;3.37;;;14.50;99.90;;;;;;4992822;28;20179;-86
2022/09/17 00:12:40;;;;;;;4.30;3.90;;;14.50;99.90;;;;;;4992666;28;20642;-86
2022/09/17 00:15:07;;;;;;;4.30;4.00;;;14.50;99.90;;;;;;4992645;28;20191;-85
2022/09/17 00:17:32;;;;;;;4.13;3.93;;;14.50;99.90;;;;;;4990934;28;20190;-85
2022/09/17 00:19:58;;;;;;;4.30;3.97;;;14.50;99.90;;;;;;4992488;28;20221;-85
2022/09/17 00:22:24;;;;;;;4.33;4.10;;;14.50;99.90;;;;;;4992609;28;20197;-86
2022/09/17 00:24:50;;;;;;;3.50;3.30;;;14.50;99.90;;;;;;4992275;28;20178;-86
2022/09/17 00:27:16;;;;;;;4.30;3.63;;;14.60;99.90;;;;;;4992082;28;20220;-85
2022/09/17 00:29:42;;;;;;;3.73;3.53;;;14.60;99.90;;;;;;4994488;28;20230;-87
2022/09/17 00:32:08;;;;;;;3.37;3.17;;;14.70;99.90;;;;;;4999702;28;20205;-87
2022/09/17 00:34:34;;;;;;;3.53;3.43;;;14.70;99.90;;;;;;4993200;28;20549;-87
2022/09/17 00:37:00;;;;;;;3.37;3.27;;;14.60;99.90;;;;;;4992490;28;20188;-87
2022/09/17 00:39:26;;;;;;;3.77;3.47;;;14.60;99.90;;;;;;4991743;28;20280;-87
2022/09/17 00:41:51;;;;;;;3.00;2.90;;;14.50;99.90;;;;;;4992199;28;20176;-86
2022/09/17 00:44:39;;;;;;;3.67;3.47;;;14.50;99.90;;;;;;4990678;28;20185;-86
2022/09/17 00:47:12;;;;;;;3.50;3.30;;;14.50;99.90;;;;;;4991940;28;20183;-87
2022/09/17 00:49:38;;;;;;;3.70;3.43;;;14.50;99.90;;;;;;4991844;28;20162;-86
2022/09/17 00:52:08;;;;;;;3.37;3.20;;;14.40;99.90;;;;;;4991895;28;20181;-86
2022/09/17 00:54:39;;;;;;;3.27;3.07;;;14.50;99.90;;;;;;4990581;28;20256;-86
2022/09/17 00:57:06;;;;;;;3.20;3.10;;;14.50;99.90;;;;;;4992010;28;20173;-87
2022/09/17 00:59:32;;;;;;;3.63;3.33;;;14.60;99.90;;;;;;4993308;28;20292;-85
2022/09/17 01:01:58;;;;;;;3.13;3.00;;;14.60;99.90;;;;;;4993515;28;20249;-86
2022/09/17 01:04:26;;;;;;;3.33;3.13;;;14.50;99.90;;;;;;4997076;28;20216;-87
2022/09/17 01:06:51;;;;;;;3.50;3.20;;;14.50;99.90;;;;;;5001339;28;20195;-85
2022/09/17 01:09:39;;;;;;;2.90;2.80;;;14.50;99.90;;;;;;5010431;28;20224;-83
2022/09/17 01:12:15;;;;;;;3.10;3.00;;;14.50;99.90;;;;;;5000461;28;20169;-85
2022/09/17 01:15:02;;;;;;;5.00;2.77;;;14.50;99.90;;;;;;4991737;28;20255;-84
2022/09/17 01:18:21;;;;;;;3.20;3.10;;;14.50;99.90;;;;;;4990103;28;20170;-84
2022/09/17 01:21:20;;;;;;;3.40;3.20;;;14.50;99.90;;;;;;4956626;28;20229;-84
2022/09/17 01:24:05;;;;;;;2.60;2.50;;;14.50;99.90;;;;;;4990995;28;20171;-85
2022/09/17 01:26:58;;;;;;;2.80;2.70;;;14.50;99.90;;;;;;5006331;28;20196;-84
2022/09/17 01:30:08;;;;;;;2.70;2.60;;;14.50;99.90;;;;;;5009858;28;20160;-84
2022/09/17 01:32:58;;;;;;;2.60;2.50;;;14.60;99.90;;;;;;5009559;28;20187;-84
2022/09/17 01:35:43;;;;;;;3.03;2.87;;;14.60;99.90;;;;;;5010219;28;20166;-83
2022/09/17 01:38:12;;;;;;;3.17;3.07;;;14.50;99.90;;;;;;5010151;28;20153;-86
2022/09/17 01:41:06;;;;;;;3.23;3.03;;;14.50;99.90;;;;;;5014873;28;20302;-86
2022/09/17 01:43:47;;;;;;;3.50;3.30;;;14.50;99.90;;;;;;5019368;28;20167;-86
2022/09/17 01:46:17;;;;;;;3.87;3.67;;;14.50;99.90;;;;;;5010226;28;20563;-85
2022/09/17 01:48:46;;;;;;;4.10;3.80;;;14.50;99.90;;;;;;5010421;28;20168;-83
2022/09/17 01:51:24;;;;;;;3.90;3.13;;;14.50;99.90;;;;;;5010325;28;20193;-85
2022/09/17 01:54:04;;;;;;;4.00;3.67;;;14.50;99.90;;;;;;5010238;28;20181;-85
2022/09/17 01:56:59;;;;;;;4.37;3.20;;;14.40;99.90;;;;;;5010022;28;20169;-84
2022/09/17 01:59:41;;;;;;;3.33;3.13;;;14.40;99.90;;;;;;5010234;28;20291;-83
2022/09/17 02:02:24;;;;;;;4.13;3.93;;;14.50;99.90;;;;;;5010355;28;20179;-84
2022/09/17 02:04:59;;;;;;;3.83;3.60;;;14.50;99.90;;;;;;5010486;28;20162;-85
2022/09/17 02:07:26;;;;;;;3.83;3.63;;;14.40;99.90;;;;;;5009844;28;20231;-85
2022/09/17 02:10:05;;;;;;;3.73;3.43;;;14.40;99.90;;;;;;5010351;28;20167;-84
2022/09/17 02:12:37;;;;;;;3.43;3.30;;;14.30;99.90;;;;;;5010217;28;20228;-84
2022/09/17 02:15:10;;;;;;;3.70;3.50;;;14.20;99.90;;;;;;5015565;28;20168;-82
2022/09/17 02:17:48;;;;;;;3.70;3.50;;;14.20;99.90;;;;;;5023028;28;20172;-85
2022/09/17 02:20:15;;;;;;;4.10;3.80;;;14.20;99.90;;;;;;5010656;28;20898;-85
2022/09/17 02:22:55;;;;;;;4.00;3.80;;;14.30;99.90;;;;;;5009964;28;20173;-84
2022/09/17 02:25:30;;;;;;;4.43;4.17;;;14.20;99.90;;;;;;5010098;28;20255;-83
2022/09/17 02:28:12;;;;;;;3.70;3.40;;;14.20;99.90;;;;;;5009873;28;20397;-84
2022/09/17 02:30:38;;;;;;;4.10;3.90;;;14.30;99.90;;;;;;5008659;28;20181;-83
2022/09/17 02:33:07;;;;;;;3.93;3.63;;;14.30;99.90;;;;;;5009853;28;20182;-85
2022/09/17 02:35:33;;;;;;;4.00;3.80;;;14.30;99.90;;;;;;5009538;28;20273;-85
2022/09/17 02:38:00;;;;;;;3.97;3.77;;;14.30;99.90;;;;;;5010891;28;20252;-85
2022/09/17 02:40:30;;;;;;;4.50;4.10;;;14.20;99.90;;;;;;5010982;28;20243;-85
2022/09/17 02:43:01;;;;;;;4.07;3.77;;;14.20;99.90;;;;;;5014826;28;20169;-84
2022/09/17 02:45:30;;;;;;;4.10;3.90;;;14.30;99.90;;;;;;5031757;28;20169;-84
2022/09/17 02:48:44;;;;;;;4.23;4.00;;;14.30;99.90;;;;;;5035580;28;20264;-83
2022/09/17 02:51:35;;;;;;;4.60;4.30;;;14.30;99.90;;;;;;5013023;28;20189;-84
2022/09/17 02:54:39;;;;;;;4.47;4.07;;;14.30;99.90;;;;;;5012562;28;20264;-86
2022/09/17 02:57:32;;;;;;;3.97;3.67;;;14.30;99.90;;;;;;5013188;28;20216;-85
2022/09/17 03:00:16;;;;;;;3.70;3.50;;;14.40;99.90;;;;;;5013235;28;20201;-84
2022/09/17 03:03:11;;;;;;;4.30;4.00;;;14.30;99.90;;;;;;5013508;28;20173;-83
2022/09/17 03:05:38;;;;;;;4.60;4.03;;;14.40;99.90;;;;;;5012649;28;20202;-85
2022/09/17 03:08:08;;;;;;;4.80;4.50;;;14.30;99.90;;;;;;5012056;28;20181;-84
2022/09/17 03:10:34;;;;;;;4.40;4.10;;;14.30;99.90;;;;;;5011928;28;20179;-86
2022/09/17 03:13:00;;;;;;;4.10;3.90;;;14.40;99.90;;;;;;5013169;28;20205;-85
2022/09/17 03:15:27;;;;;;;4.10;3.90;;;14.30;99.90;;;;;;5013272;28;20219;-83
2022/09/17 03:17:52;;;;;;;4.37;4.17;;;14.40;99.90;;;;;;5013151;28;20590;-86
2022/09/17 03:20:18;;;;;;;4.40;4.10;;;14.30;99.90;;;;;;5012865;28;20251;-84
2022/09/17 03:22:44;;;;;;;4.20;3.90;;;14.40;99.90;;;;;;5012955;28;20264;-85
2022/09/17 03:25:10;;;;;;;4.57;4.27;;;14.40;99.90;;;;;;5012944;28;20691;-84
2022/09/17 03:27:36;;;;;;;4.40;4.20;;;14.50;99.90;;;;;;5011505;28;20994;-83
2022/09/17 03:30:02;;;;;;;5.47;4.10;;;14.50;99.90;;;;;;5012808;28;20181;-83
2022/09/17 03:32:28;;;;;;;4.20;4.00;;;14.40;99.90;;;;;;5012896;28;20220;-85
2022/09/17 03:34:54;;;;;;;4.03;3.83;;;14.40;99.90;;;;;;5013189;28;20192;-83
2022/09/17 03:37:20;;;;;;;4.90;4.60;;;14.50;99.90;;;;;;5012913;28;20682;-84
2022/09/17 03:39:46;;;;;;;5.00;4.60;;;14.40;99.90;;;;;;5012137;28;20681;-84
2022/09/17 03:42:12;;;;;;;4.77;4.47;;;14.40;99.90;;;;;;5016117;28;20177;-87
2022/09/17 03:44:38;;;;;;;4.70;4.30;;;14.40;99.90;;;;;;5014908;28;20251;-85
2022/09/17 03:47:04;;;;;;;4.33;4.03;;;14.50;99.90;;;;;;5013642;28;20169;-86
2022/09/17 03:49:30;;;;;;;4.23;4.03;;;14.40;99.90;;;;;;5013516;28;20177;-85
2022/09/17 03:51:55;;;;;;;4.60;4.37;;;14.40;99.90;;;;;;5012274;28;20268;-86
2022/09/17 03:54:21;;;;;;;4.80;4.50;;;14.40;99.90;;;;;;5012573;28;20679;-86
2022/09/17 03:56:47;;;;;;;4.47;4.27;;;14.40;99.90;;;;;;5012552;28;20642;-88
2022/09/17 03:59:13;;;;;;;4.40;4.20;;;14.30;99.90;;;;;;5015703;28;20198;-85
2022/09/17 04:01:39;;;;;;;3.93;3.63;;;14.30;99.90;;;;;;5031438;28;20256;-85
2022/09/17 04:04:05;;;;;;;4.17;3.77;;;14.40;99.90;;;;;;5012247;28;20768;-85
2022/09/17 04:06:31;;;;;;;4.00;3.80;;;14.30;99.90;;;;;;5012374;28;20218;-84
2022/09/17 04:08:57;;;;;;;4.27;3.97;;;14.30;99.90;;;;;;5012172;28;20177;-86
2022/09/17 04:11:22;;;;;;;5.00;4.53;;;14.30;99.90;;;;;;5011414;28;20312;-87
2022/09/17 04:13:48;;;;;;;4.60;4.40;;;14.30;99.90;;;;;;5013477;28;20177;-85
2022/09/17 04:16:14;;;;;;;4.37;4.17;;;14.30;99.90;;;;;;5013411;28;20165;-89
2022/09/17 04:18:40;;;;;;;4.43;3.80;;;14.30;99.90;;;;;;5012351;28;20221;-88
2022/09/17 04:21:06;;;;;;;4.00;3.70;;;14.30;99.90;;;;;;5024074;28;20231;-87
2022/09/17 04:23:32;;;;;;;3.87;3.60;;;14.20;99.90;;;;;;5039021;28;20179;-85
2022/09/17 04:25:57;;;;;;;4.07;3.80;;;14.10;99.90;;;;;;5038609;28;20176;-86
2022/09/17 04:28:23;;;;;;;5.57;3.90;;;14.00;99.90;;;;;;5017118;28;20177;-88
2022/09/17 04:30:49;;;;;;;3.40;3.30;;;14.00;99.90;;;;;;5011771;28;20643;-88
2022/09/17 04:33:15;;;;;;;3.50;3.30;;;13.80;99.90;;;;;;5010621;28;20181;-89
2022/09/17 04:35:40;;;;;;;3.67;3.47;;;13.80;99.90;;;;;;5010614;28;20193;-86
2022/09/17 04:38:08;;;;;;;3.77;3.57;;;13.80;99.90;;;;;;5011487;28;20213;-83
2022/09/17 04:40:33;;;;;;;4.30;4.00;;;13.70;99.90;;;;;;5011650;28;20200;-83
2022/09/17 04:43:01;;;;;;;3.13;3.03;;;13.70;99.90;;;;;;5011466;28;20180;-85
2022/09/17 04:45:28;;;;;;;4.77;3.77;;;13.70;99.90;;;;;;5010073;28;20595;-86
2022/09/17 04:47:54;;;;;;;4.20;3.80;;;13.60;99.90;;;;;;5010201;28;20263;-86
2022/09/17 04:50:21;;;;;;;3.57;3.37;;;13.50;99.90;;;;;;5011288;28;20260;-83
2022/09/17 04:52:47;;;;;;;4.20;3.90;;;13.60;99.90;;;;;;5011165;28;20532;-84
2022/09/17 04:55:14;;;;;;;4.33;3.83;;;13.60;99.90;;;;;;5009986;28;20192;-88
2022/09/17 04:57:47;;;;;;;3.73;3.43;;;13.70;99.90;;;;;;5011284;28;20178;-85
2022/09/17 05:00:14;;;;;;;4.40;3.70;;;13.50;99.90;;;;;;5009761;28;20217;-82
2022/09/17 05:02:41;;;;;;;4.37;3.80;;;13.50;99.90;;;;;;5009727;28;20222;-83
2022/09/17 05:05:07;;;;;;;3.73;3.43;;;13.50;99.90;;;;;;5010742;28;20191;-85
2022/09/17 05:07:33;;;;;;;3.67;3.47;;;13.60;99.90;;;;;;5011143;28;20198;-86
2022/09/17 05:09:59;;;;;;;6.20;3.80;;;13.60;99.90;;;;;;5010758;28;20188;-86
2022/09/17 05:12:25;;;;;;;3.63;3.33;;;13.60;99.90;;;;;;5011742;28;20180;-86
2022/09/17 05:14:51;;;;;;;4.47;3.67;;;13.70;99.90;;;;;;5011156;28;20173;-85
2022/09/17 05:17:16;;;;;;;4.00;3.67;;;13.80;99.90;;;;;;5010946;28;20181;-84
2022/09/17 05:19:42;;;;;;;3.90;3.70;;;13.80;99.90;;;;;;5010588;28;20204;-86
2022/09/17 05:22:08;;;;;;;4.20;3.90;;;13.80;99.90;;;;;;5011004;28;20188;-86
2022/09/17 05:24:38;;;;;;;4.83;3.73;;;13.70;99.90;;;;;;5011154;28;20734;-85
2022/09/17 05:27:05;;;;;;;4.63;3.30;;;13.60;99.90;;;;;;5010892;28;20264;-85
2022/09/17 05:29:31;;;;;;;12.30;5.53;;;13.60;99.90;;;;;;5010807;28;20264;-86
2022/09/17 05:31:57;;;;;;;11.67;4.63;;;13.60;99.90;;;;;;5010792;28;20332;-86
2022/09/17 05:34:23;;;;;;;3.70;3.40;;;13.60;99.90;;;;;;5010822;28;20561;-85
2022/09/17 05:36:48;;;;;;;3.57;3.27;;;13.60;99.90;;;;;;5010808;28;20180;-84
2022/09/17 05:39:14;;;;;;;3.70;3.40;;;13.60;99.90;;;;;;5010758;28;20562;-85
2022/09/17 05:41:40;;;;;;;3.70;3.50;;;13.60;99.90;;;;;;5012003;28;20183;-85
2022/09/17 05:44:06;;;;;;;3.40;3.23;;;13.70;99.90;;;;;;5020954;28;20274;-85
2022/09/17 05:46:32;;;;;;;3.50;3.20;;;13.60;99.90;;;;;;5015530;28;20550;-85
2022/09/17 05:48:57;;;;;;;3.40;3.20;;;13.60;99.90;;;;;;5011542;28;20184;-84
2022/09/17 05:51:23;;;;;;;3.57;3.33;;;13.50;99.90;;;;;;5011270;28;20183;-85
2022/09/17 05:53:49;;;;;;;3.00;2.80;;;13.60;99.90;;;;;;5012361;28;20655;-86
2022/09/17 05:56:15;;;;;;;3.90;3.60;;;13.50;99.90;;;;;;5020096;28;20168;-85
2022/09/17 05:58:41;;;;;;;4.97;3.20;;;13.50;99.90;;;;;;5034649;28;20228;-86
2022/09/17 06:01:07;;;;;;;4.23;3.60;;;13.60;99.90;;;;;;5023708;28;20224;-84
2022/09/17 06:03:32;;;;;;;3.50;3.30;;;13.60;99.90;;;;;;5011698;28;20200;-85
2022/09/17 06:05:59;;;;;;;4.10;3.53;;;13.60;99.90;;;;;;5010452;28;20184;-86
2022/09/17 06:08:27;;;;;;;4.87;3.20;;;13.60;99.90;;;;;;5010298;28;20168;-86
2022/09/17 06:10:53;;;;;;;3.90;3.60;;;13.60;99.90;;;;;;5010342;28;20278;-86
2022/09/17 06:13:20;;;;;;;3.67;3.47;;;13.60;99.90;;;;;;5010387;28;20180;-85
2022/09/17 06:15:50;;;;;;;3.47;3.27;;;13.60;99.90;;;;;;5011231;28;20183;-85
2022/09/17 06:18:16;;;;;;;4.23;3.93;;;13.60;99.90;;;;;;5013048;28;20188;-85
2022/09/17 06:20:42;;;;;;;4.03;3.67;;;13.60;99.90;;;;;;5015079;28;20271;-87
2022/09/17 06:23:08;;;;;;;4.53;4.23;;;13.70;99.90;;;;;;5014187;28;20276;-85
2022/09/17 06:25:34;;;;;;;4.13;3.93;;;13.70;99.90;;;;;;5016415;28;20200;-86
2022/09/17 06:28:01;;;;;;;4.47;4.10;;;13.70;99.90;;;;;;5014770;28;20837;-87
2022/09/17 06:30:27;;;;;;;4.30;3.93;;;13.70;99.90;;;;;;5016628;28;20235;-88
2022/09/17 06:32:53;;;;;;;4.57;4.27;;;13.80;99.90;;;;;;5012603;28;20181;-88
2022/09/17 06:35:19;;;;;;;4.33;3.93;;;13.90;99.90;;;;;;5013851;28;20187;-87
2022/09/17 06:37:44;;;;;;;4.63;4.27;;;13.90;99.90;;;;;;5014000;28;20617;-88
2022/09/17 06:40:10;;;;;;;3.80;3.50;;;14.00;99.90;;;;;;5013201;28;20229;-87
2022/09/17 06:42:37;;;;;;;4.50;4.10;;;13.90;99.90;;;;;;5014627;28;20792;-87
2022/09/17 06:45:03;;;;;;;4.27;3.87;;;13.90;99.90;;;;;;5016201;28;20778;-89
2022/09/17 06:47:29;;;;;;;4.17;3.90;;;13.80;99.90;;;;;;5016248;28;20288;-86
2022/09/17 06:49:55;;;;;;;4.50;4.10;;;13.80;99.90;;;;;;5013407;28;20255;-87
2022/09/17 06:52:22;;;;;;;4.90;4.50;;;14.00;99.90;;;;;;5013395;28;20176;-86
2022/09/17 06:54:47;;;;;;;4.27;3.97;;;13.90;99.90;;;;;;5013478;28;20268;-87
2022/09/17 06:57:13;;;;;;;4.83;4.03;;;13.90;99.90;;;;;;5013486;28;20252;-86
2022/09/17 06:59:39;;;;;;;4.10;3.90;;;14.00;99.90;;;;;;5012861;28;20868;-88
2022/09/17 07:02:05;;;;;;;4.47;4.17;;;14.00;99.90;;;;;;5013123;28;20169;-87
2022/09/17 07:04:31;;;;;;;5.77;5.27;;;14.00;99.90;;;;;;5013174;28;20180;-84
2022/09/17 07:06:56;;;;;;;4.70;4.20;;;14.00;99.90;;;;;;5013275;28;20174;-88
2022/09/17 07:09:22;;;;;;;5.20;4.80;;;14.00;99.90;;;;;;5012960;28;20173;-87
2022/09/17 07:11:48;;;;;;;7.57;5.03;;;14.00;99.90;;;;;;5011257;28;20657;-87
2022/09/17 07:14:14;;;;;;;5.33;4.83;;;14.10;99.90;;;;;;5013060;28;20759;-87
2022/09/17 07:16:39;;;;;;;5.30;4.33;;;14.20;99.90;;;;;;5013400;28;20181;-87
2022/09/17 07:19:05;;;;;;;6.47;5.13;;;14.10;99.90;;;;;;5013141;28;20169;-87
2022/09/17 07:21:31;;;;;;;5.50;5.00;;;14.10;99.90;;;;;;5013011;28;20176;-88
2022/09/17 07:23:58;;;;;;;6.30;4.80;;;14.00;99.90;;;;;;5014450;28;20177;-87
2022/09/17 07:26:24;;;;;;;5.50;5.10;;;14.00;99.90;;;;;;5015016;28;20169;-84
2022/09/17 07:28:50;;;;;;;8.23;5.27;;;14.00;99.90;;;;;;5019319;28;20219;-87
2022/09/17 07:31:15;;;;;;;5.73;5.33;;;14.10;99.90;;;;;;5026429;28;20204;-87
2022/09/17 07:33:41;;;;;;;5.70;5.20;;;14.00;99.90;;;;;;5024706;28;20181;-84
2022/09/17 07:36:10;;;;;;;6.13;5.60;;;14.10;99.90;;;;;;5038216;28;20280;-85
2022/09/17 07:38:36;;;;;;;6.87;5.23;;;14.10;99.90;;;;;;5034426;28;20272;-87
2022/09/17 07:41:12;;;;;;;5.90;5.37;;;14.10;99.90;;;;;;5016582;28;20205;-87
2022/09/17 07:43:38;;;;;;;5.73;5.30;;;14.20;99.90;;;;;;5014053;28;20157;-87
2022/09/17 07:46:05;;;;;;;5.40;5.00;;;14.10;99.90;;;;;;5013570;28;20185;-87
2022/09/17 07:48:32;;;;;;;11.30;5.07;;;14.10;99.90;;;;;;5014058;28;20173;-86
2022/09/17 07:50:57;;;;;;;5.57;5.07;;;14.10;99.90;;;;;;5012757;28;20205;-88
2022/09/17 07:53:24;;;;;;;5.47;5.07;;;14.10;99.90;;;;;;5011346;28;20584;-89
2022/09/17 07:55:57;;;;;;;8.90;5.67;;;13.90;99.90;;;;;;5013721;28;20228;-86
2022/09/17 07:58:28;;;;;;;5.70;5.33;;;14.00;99.90;;;;;;5015301;28;20180;-87
2022/09/17 08:01:02;;;;;;;5.60;5.20;;;14.00;99.90;;;;;;5016270;28;20278;-84
2022/09/17 08:03:28;;;;;;;6.87;5.73;;;13.90;99.90;;;;;;5013142;28;20180;-84
2022/09/17 08:06:03;;;;;;;5.83;5.33;;;13.80;99.90;;;;;;5017591;28;20585;-85
2022/09/17 08:08:32;;;;;;;4.90;4.47;;;13.90;99.90;;;;;;5014918;28;20755;-84
2022/09/17 08:11:06;;;;;;;5.27;4.83;;;13.90;99.90;;;;;;5013309;28;20289;-84
2022/09/17 08:13:33;;;;;;;5.60;5.17;;;13.80;99.90;;;;;;5013869;28;20244;-83
2022/09/17 08:16:00;;;;;;;5.93;5.33;;;13.80;99.90;;;;;;5013960;28;20185;-84
2022/09/17 08:18:26;;;;;;;5.27;4.97;;;13.80;99.90;;;;;;5012374;28;20502;-84
2022/09/17 08:20:56;;;;;;;5.20;4.83;;;13.80;99.90;;;;;;5011582;28;20744;-85
2022/09/17 08:23:22;;;;;;;5.87;5.13;;;13.90;99.90;;;;;;5010028;28;20584;-83
2022/09/17 08:25:55;;;;;;;6.10;5.40;;;14.00;99.90;;;;;;5012994;28;20260;-83
2022/09/17 08:28:24;;;;;;;5.93;5.53;;;14.00;99.90;;;;;;5014465;28;20200;-85
2022/09/17 08:30:50;;;;;;;5.67;5.17;;;14.20;99.90;;;;;;5013011;28;20180;-84
2022/09/17 08:33:16;;;;;;;6.00;4.90;;;14.20;99.90;;;;;;5014135;28;20231;-84
2022/09/17 08:35:50;;;;;;;5.03;4.63;;;14.20;99.90;;;;;;5013476;28;20219;-84
2022/09/17 08:38:16;;;;;;;6.10;5.60;;;14.20;99.90;;;;;;5011214;28;20403;-83
2022/09/17 08:41:02;;;;;;;6.63;5.70;;;14.20;99.90;;;;;;5012466;28;20211;-85
2022/09/17 08:43:30;;;;;;;5.77;5.23;;;14.20;99.90;;;;;;5013546;28;20599;-85
2022/09/17 08:45:58;;;;;;;5.60;5.30;;;14.20;99.90;;;;;;5015948;28;20177;-84
2022/09/17 08:48:27;;;;;;;5.43;5.10;;;14.20;99.90;;;;;;5014064;28;20263;-85
2022/09/17 08:50:53;;;;;;;5.17;4.67;;;14.20;99.90;;;;;;5012401;28;20173;-86
2022/09/17 08:53:41;;;;;;;6.07;5.60;;;14.30;99.90;;;;;;5011395;28;20174;-85
2022/09/17 08:56:15;;;;;;;5.80;5.10;;;14.30;99.90;;;;;;5011723;28;20613;-87
2022/09/17 08:58:51;;;;;;;5.77;5.27;;;14.30;99.90;;;;;;5013043;28;20165;-84
2022/09/17 09:01:42;;;;;;;5.77;5.37;;;14.30;99.90;;;;;;5013275;28;20204;-84
2022/09/17 09:04:36;;;;;;;6.07;5.57;;;14.30;99.90;;;;;;5014892;28;20519;-87
2022/09/17 09:07:09;;;;;;;6.10;5.70;;;14.30;99.90;;;;;;5014177;28;20154;-85
2022/09/17 09:09:44;;;;;;;6.97;6.40;;;14.40;99.90;;;;;;5012361;28;20161;-87
2022/09/17 09:12:17;;;;;;;6.57;6.07;;;14.40;99.90;;;;;;5018769;28;20186;-86
2022/09/17 09:14:52;;;;;;;6.73;6.23;;;14.40;99.90;;;;;;5035763;28;20160;-82
2022/09/17 09:17:21;;;;;;;6.73;6.03;;;14.50;99.90;;;;;;5032078;28;20176;-86
2022/09/17 09:19:48;;;;;;;6.10;5.70;;;14.40;99.90;;;;;;5012391;28;20201;-84
2022/09/17 09:22:20;;;;;;;6.53;5.93;;;14.50;99.90;;;;;;5009999;28;20181;-85
2022/09/17 09:25:04;;;;;;;5.97;5.53;;;14.50;99.90;;;;;;5011447;28;20650;-84
2022/09/17 09:27:37;;;;;;;5.57;5.17;;;14.50;99.90;;;;;;5010988;28;20176;-85
2022/09/17 09:30:10;;;;;;;5.63;5.00;;;14.60;99.90;;;;;;5011024;28;20163;-85
2022/09/17 09:32:47;;;;;;;4.50;4.10;;;14.60;99.90;;;;;;5010853;28;20223;-86
2022/09/17 09:35:26;;;;;;;4.77;4.47;;;14.70;99.90;;;;;;5010990;28;20510;-85
2022/09/17 09:38:17;;;;;;;4.57;4.13;;;14.70;99.90;;;;;;5010753;28;20163;-85
2022/09/17 09:40:54;;;;;;;4.40;4.17;;;14.80;99.90;;;;;;5010851;28;20225;-85
2022/09/17 09:43:56;;;;;;;4.20;4.00;;;14.80;99.90;;;;;;5011453;28;20504;-84
2022/09/17 09:46:25;;;;;;;3.73;3.53;;;14.80;99.90;;;;;;5017630;28;20211;-86
2022/09/17 09:48:54;;;;;;;5.27;4.87;;;14.90;99.90;;;;;;5011427;28;20227;-85
2022/09/17 09:51:38;;;;;;;6.20;4.97;;;15.00;99.90;;;;;;5011198;28;20176;-84
2022/09/17 09:54:19;;;;;;;6.17;5.50;;;15.10;99.90;;;;;;5011061;28;20249;-85
2022/09/17 09:56:57;;;;;;;5.00;4.60;;;15.10;99.90;;;;;;5010786;28;20203;-85
2022/09/17 09:59:24;;;;;;;7.33;4.30;;;15.30;99.90;;;;;;5010239;28;20193;-84
2022/09/17 10:01:50;;;;;;;5.70;3.53;;;15.30;99.90;;;;;;5011269;28;20179;-83
2022/09/17 10:04:27;;;;;;;3.40;3.10;;;15.30;99.90;;;;;;5011085;28;20180;-84
2022/09/17 10:07:05;;;;;;;4.47;3.10;;;15.30;99.90;;;;;;5010430;28;20248;-84
2022/09/17 10:09:34;;;;;;;3.37;3.17;;;15.30;99.90;;;;;;5010355;28;20307;-84
2022/09/17 10:12:01;;;;;;;3.13;2.83;;;15.30;99.90;;;;;;5010218;28;20178;-85
2022/09/17 10:14:29;;;;;;;86.03;11.43;;;15.40;99.90;;;;;;5010438;28;20187;-84
2022/09/17 10:17:15;;;;;;;47.73;6.50;;;15.50;99.90;;;;;;5010521;28;20659;-85
2022/09/17 10:19:42;;;;;;;8.20;2.50;;;15.50;99.90;;;;;;5010141;28;20568;-84
2022/09/17 10:22:31;;;;;;;2.07;1.83;;;15.60;99.90;;;;;;5010877;28;20176;-83
2022/09/17 10:24:59;;;;;;;2.50;2.27;;;15.50;99.90;;;;;;5010434;28;20169;-84
2022/09/17 10:27:26;;;;;;;4.73;3.20;;;15.50;99.90;;;;;;5010275;28;20170;-83
2022/09/17 10:30:07;;;;;;;1.90;1.80;;;15.60;99.90;;;;;;5009018;28;20177;-85
2022/09/17 10:32:32;;;;;;;1.93;1.83;;;15.60;99.90;;;;;;5009184;28;20176;-83
2022/09/17 10:35:03;;;;;;;2.20;1.80;;;15.60;99.90;;;;;;5012637;28;20177;-84
2022/09/17 10:37:48;;;;;;;2.33;2.10;;;15.70;99.90;;;;;;5012927;28;20597;-83
2022/09/17 10:40:34;;;;;;;2.30;1.70;;;15.70;99.90;;;;;;5011946;28;20224;-85
2022/09/17 10:43:13;;;;;;;1.20;1.20;;;15.70;99.90;;;;;;5011691;28;20258;-85
2022/09/17 10:45:55;;;;;;;4.03;1.17;;;15.60;99.90;;;;;;5010982;28;20629;-85
2022/09/17 10:48:22;;;;;;;2.10;1.10;;;15.50;99.90;;;;;;5010189;28;20158;-85
2022/09/17 10:50:50;;;;;;;3.87;1.40;;;15.40;99.90;;;;;;5025200;28;20158;-83
2022/09/17 10:53:18;;;;;;;2.73;1.90;;;15.40;99.90;;;;;;5035632;28;20186;-85
2022/09/17 10:55:49;;;;;;;15.93;2.63;;;15.40;99.90;;;;;;5018271;28;20538;-84
2022/09/17 10:58:49;;;;;;;4.83;1.87;;;15.30;99.90;;;;;;5012918;28;20249;-86
2022/09/17 11:01:52;;;;;;;2.00;1.60;;;15.40;99.90;;;;;;5030163;28;20609;-86
2022/09/17 11:04:30;;;;;;;2.10;1.77;;;15.50;99.90;;;;;;5024975;28;20166;-83
2022/09/17 11:07:18;;;;;;;1.40;1.30;;;15.50;99.90;;;;;;5013990;28;20511;-85
2022/09/17 11:10:11;;;;;;;3.37;1.50;;;15.50;99.90;;;;;;5014404;28;20212;-84
2022/09/17 11:12:50;;;;;;;2.60;1.87;;;15.50;99.90;;;;;;5013986;28;20168;-86
2022/09/17 11:15:31;;;;;;;2.00;1.80;;;15.30;99.90;;;;;;5013921;28;20175;-85
2022/09/17 11:18:14;;;;;;;1.47;1.40;;;15.30;99.90;;;;;;5012162;28;20187;-85
2022/09/17 11:21:13;;;;;;;2.03;1.93;;;15.30;99.90;;;;;;5012075;28;20212;-85
2022/09/17 11:23:51;;;;;;;2.27;2.13;;;15.40;99.90;;;;;;5013387;28;20169;-85
2022/09/17 11:26:26;;;;;;;34.80;7.00;;;15.50;99.90;;;;;;5013275;28;20222;-86
2022/09/17 11:29:03;;;;;;;11.50;2.70;;;15.50;99.90;;;;;;5011796;28;20180;-84
2022/09/17 11:31:32;;;;;;;4.77;2.17;;;15.60;99.90;;;;;;5014843;28;20237;-85
2022/09/17 11:34:34;;;;;;;3.07;1.80;;;15.50;99.90;;;;;;5015764;28;20635;-85
2022/09/17 11:37:09;;;;;;;8.27;2.73;;;15.70;99.90;;;;;;5014544;28;20169;-85
2022/09/17 11:39:54;;;;;;;3.50;1.30;;;15.80;99.90;;;;;;5014025;28;20231;-84
2022/09/17 11:42:29;;;;;;;4.50;1.57;;;15.80;99.90;;;;;;5015313;28;20908;-86
2022/09/17 11:45:10;;;;;;;13.43;2.70;;;15.80;99.90;;;;;;5014279;28;20636;-86
2022/09/17 11:47:42;;;;;;;19.63;2.50;;;15.80;99.90;;;;;;5013058;28;20158;-83
2022/09/17 11:50:24;;;;;;;1.87;1.77;;;15.90;99.90;;;;;;5015737;28;20224;-85
2022/09/17 11:53:04;;;;;;;1.57;1.47;;;;;;;;;;5014030;28;20189;-84
2022/09/17 11:55:54;;;;;;;3.70;1.40;;;15.60;99.90;;;;;;5014594;28;20269;-84
2022/09/17 11:58:25;;;;;;;5.23;1.70;;;15.70;99.90;;;;;;5015447;28;20271;-83
2022/09/17 12:01:00;;;;;;;1.50;1.40;;;15.70;99.80;;;;;;5013772;28;20695;-83
2022/09/17 12:03:49;;;;;;;1.13;1.00;;;15.70;98.80;;;;;;5013572;28;20224;-83
2022/09/17 12:06:21;;;;;;;1.33;1.20;;;15.60;98.00;;;;;;5012602;28;20646;-84
2022/09/17 12:09:03;;;;;;;0.93;0.93;;;15.70;99.50;;;;;;5011028;28;20184;-84
2022/09/17 12:11:56;;;;;;;1.20;1.20;;;15.70;97.90;;;;;;5012318;28;20194;-86
2022/09/17 12:14:46;;;;;;;1.10;1.10;;;15.50;98.20;;;;;;5011863;28;20163;-86
2022/09/17 12:17:20;;;;;;;1.20;1.20;;;15.30;98.30;;;;;;5011019;28;20186;-85
2022/09/17 12:19:51;;;;;;;1.23;1.20;;;15.30;98.50;;;;;;5012165;28;20218;-85
2022/09/17 12:22:37;;;;;;;1.30;1.20;;;15.40;98.60;;;;;;5012354;28;20637;-85
2022/09/17 12:25:05;;;;;;;0.73;0.73;;;15.50;97.90;;;;;;5013930;28;20188;-86
2022/09/17 12:27:51;;;;;;;0.80;0.80;;;15.40;96.40;;;;;;5027497;28;20161;-83
2022/09/17 12:30:25;;;;;;;1.23;0.93;;;15.30;95.50;;;;;;5034095;28;20176;-83
2022/09/17 12:32:53;;;;;;;1.07;0.90;;;15.00;95.20;;;;;;5018430;28;20165;-86
2022/09/17 12:35:28;;;;;;;1.17;1.07;;;15.00;95.80;;;;;;5013841;28;20199;-83
2022/09/17 12:38:06;;;;;;;1.30;1.20;;;15.00;96.00;;;;;;5013539;28;20176;-84
2022/09/17 12:40:38;;;;;;;1.33;1.00;;;15.00;96.80;;;;;;5012079;28;20647;-83
2022/09/17 12:43:38;;;;;;;2.67;1.30;;;15.00;95.50;;;;;;5014054;28;20696;-84
2022/09/17 12:46:38;;;;;;;1.10;1.10;;;15.00;95.40;;;;;;5017949;28;20598;-85
2022/09/17 12:49:41;;;;;;;0.87;0.83;;;14.80;95.10;;;;;;5016172;28;20249;-86
2022/09/17 12:52:29;;;;;;;1.00;1.00;;;14.80;94.80;;;;;;5015772;28;20164;-86
2022/09/17 12:55:32;;;;;;;1.53;1.10;;;14.90;95.10;;;;;;5017880;28;20253;-86
2022/09/17 12:58:25;;;;;;;1.10;1.00;;;14.90;95.60;;;;;;5014797;28;20528;-85
2022/09/17 13:01:02;;;;;;;2.20;1.10;;;14.90;95.30;;;;;;5013107;28;20237;-85
2022/09/17 13:03:34;;;;;;;3.43;1.10;;;14.80;95.10;;;;;;5011762;28;20652;-86
2022/09/17 13:06:07;;;;;;;1.37;1.30;;;14.90;96.00;;;;;;5011520;28;20153;-86
2022/09/17 13:09:14;;;;;;;1.73;1.47;;;14.90;94.80;;;;;;5011415;28;20672;-84
2022/09/17 13:11:47;;;;;;;1.67;1.10;;;14.80;95.30;;;;;;5031688;28;20266;-84
2022/09/17 13:14:47;;;;;;;1.27;1.27;;;14.80;94.50;;;;;;5018025;28;20634;-84
2022/09/17 13:17:48;;;;;;;1.70;1.53;;;14.70;95.30;;;;;;5012561;28;20166;-84